createdAt,value
2023-02-07T00:01:25.711Z,2.50
2023-02-07T00:03:52.899Z,2.63
2023-02-07T00:06:24.665Z,2.30
2023-02-07T00:08:52.858Z,2.20
2023-02-07T00:11:21.121Z,2.08
2023-02-07T00:13:50.217Z,2.30
2023-02-07T00:16:17.124Z,2.30
2023-02-07T00:18:44.171Z,1.90
2023-02-07T00:21:14.258Z,2.00
2023-02-07T00:23:41.712Z,2.30
2023-02-07T00:26:09.262Z,2.50
2023-02-07T00:28:37.033Z,2.10
2023-02-07T00:31:06.813Z,2.10
2023-02-07T00:33:35.452Z,2.28
2023-02-07T00:36:05.402Z,2.28
2023-02-07T00:38:32.136Z,2.40
2023-02-07T00:40:59.070Z,2.30
2023-02-07T00:43:29.848Z,2.47
2023-02-07T00:46:01.352Z,2.35
2023-02-07T00:48:28.935Z,2.53
2023-02-07T00:50:56.216Z,2.60
2023-02-07T00:53:23.543Z,2.40
2023-02-07T00:55:50.250Z,2.27
2023-02-07T00:58:17.092Z,2.03
2023-02-07T01:00:43.749Z,2.33
2023-02-07T01:03:10.356Z,2.30
2023-02-07T01:05:37.408Z,2.30
2023-02-07T01:08:04.582Z,2.20
2023-02-07T01:10:31.870Z,2.15
2023-02-07T01:12:58.906Z,2.25
2023-02-07T01:15:26.369Z,2.10
2023-02-07T01:17:52.974Z,2.30
2023-02-07T01:20:19.729Z,2.13
2023-02-07T01:22:46.359Z,2.33
2023-02-07T01:25:13.006Z,2.00
2023-02-07T01:27:39.579Z,2.15
2023-02-07T01:30:06.472Z,1.95
2023-02-07T01:32:33.907Z,2.30
2023-02-07T01:35:00.762Z,1.83
2023-02-07T01:37:27.556Z,2.00
2023-02-07T01:39:55.034Z,1.98
2023-02-07T01:42:24.587Z,2.00
2023-02-07T01:44:51.076Z,2.20
2023-02-07T01:47:23.692Z,2.30
2023-02-07T01:49:55.576Z,2.25
2023-02-07T01:52:26.868Z,2.10
2023-02-07T01:54:58.133Z,2.30
2023-02-07T01:57:25.569Z,2.70
2023-02-07T01:59:54.297Z,2.78
2023-02-07T02:02:23.112Z,2.38
2023-02-07T02:04:54.933Z,2.03
2023-02-07T02:07:23.005Z,2.22
2023-02-07T02:09:49.601Z,2.03
2023-02-07T02:12:55.652Z,2.15
2023-02-07T02:15:37.901Z,2.22
2023-02-07T02:18:38.521Z,2.33
2023-02-07T02:21:22.036Z,2.20
2023-02-07T02:24:29.461Z,2.10
2023-02-07T02:27:09.834Z,2.38
2023-02-07T02:29:54.472Z,2.50
2023-02-07T02:32:36.001Z,2.47
2023-02-07T02:35:19.745Z,2.33
2023-02-07T02:38:03.221Z,2.20
2023-02-07T02:40:51.782Z,2.28
2023-02-07T02:43:31.820Z,2.15
2023-02-07T02:46:03.440Z,2.45
2023-02-07T02:48:31.190Z,2.35
2023-02-07T02:50:58.457Z,2.57
2023-02-07T02:53:25.033Z,2.30
2023-02-07T02:56:18.703Z,2.50
2023-02-07T02:59:13.294Z,2.45
2023-02-07T03:02:02.693Z,2.47
2023-02-07T03:04:39.094Z,2.60
2023-02-07T03:07:23.488Z,2.30
2023-02-07T03:10:28.488Z,2.70
2023-02-07T03:12:58.200Z,2.10
2023-02-07T03:15:50.705Z,2.50
2023-02-07T03:18:43.234Z,2.40
2023-02-07T03:21:24.605Z,2.38
2023-02-07T03:23:53.845Z,2.53
2023-02-07T03:26:23.312Z,2.53
2023-02-07T03:28:51.441Z,2.65
2023-02-07T03:31:21.777Z,2.37
2023-02-07T03:33:51.251Z,2.30
2023-02-07T03:36:28.621Z,2.80
2023-02-07T03:38:55.263Z,2.28
2023-02-07T03:41:33.845Z,3.40
2023-02-07T03:44:06.955Z,2.73
2023-02-07T03:46:37.888Z,2.72
2023-02-07T03:49:05.446Z,2.33
2023-02-07T03:51:32.001Z,2.40
2023-02-07T03:53:58.608Z,2.22
2023-02-07T03:56:25.355Z,2.20
2023-02-07T03:58:52.188Z,2.22
2023-02-07T04:01:18.873Z,2.38
2023-02-07T04:03:45.599Z,2.50
2023-02-07T04:06:12.301Z,2.50
2023-02-07T04:08:38.903Z,2.50
2023-02-07T04:11:05.612Z,2.40
2023-02-07T04:13:32.224Z,2.80
2023-02-07T04:15:59.302Z,2.58
2023-02-07T04:18:25.973Z,2.70
2023-02-07T04:21:00.975Z,2.47
2023-02-07T04:23:27.615Z,2.38
2023-02-07T04:25:54.183Z,2.50
2023-02-07T04:28:20.813Z,2.50
2023-02-07T04:30:47.469Z,2.75
2023-02-07T04:33:14.085Z,2.37
2023-02-07T04:35:40.712Z,2.42
2023-02-07T04:38:07.299Z,2.38
2023-02-07T04:40:34.015Z,2.30
2023-02-07T04:43:00.590Z,2.50
2023-02-07T04:45:27.195Z,2.40
2023-02-07T04:47:53.776Z,2.40
2023-02-07T04:50:20.388Z,2.78
2023-02-07T04:52:47.033Z,2.20
2023-02-07T04:55:13.621Z,2.45
2023-02-07T04:57:40.197Z,2.37
2023-02-07T05:00:07.042Z,2.38
2023-02-07T05:02:33.686Z,2.70
2023-02-07T05:05:00.261Z,2.22
2023-02-07T05:07:26.852Z,2.65
2023-02-07T05:09:53.708Z,2.50
2023-02-07T05:12:20.377Z,2.47
2023-02-07T05:14:46.974Z,2.67
2023-02-07T05:17:13.596Z,2.33
2023-02-07T05:19:40.179Z,2.60
2023-02-07T05:22:06.766Z,2.23
2023-02-07T05:24:33.522Z,2.17
2023-02-07T05:27:00.141Z,2.30
2023-02-07T05:29:26.848Z,2.60
2023-02-07T05:32:12.693Z,2.47
2023-02-07T05:34:39.277Z,2.70
2023-02-07T05:37:05.858Z,2.50
2023-02-07T05:39:32.436Z,2.78
2023-02-07T05:41:59.109Z,2.33
2023-02-07T05:44:25.706Z,2.50
2023-02-07T05:46:52.743Z,2.70
2023-02-07T05:49:19.417Z,2.88
2023-02-07T05:51:46.026Z,2.97
2023-02-07T05:54:12.651Z,2.58
2023-02-07T05:56:39.255Z,2.95
2023-02-07T05:59:05.950Z,2.37
2023-02-07T06:01:32.570Z,2.40
2023-02-07T06:03:59.172Z,2.65
2023-02-07T06:06:25.779Z,2.50
2023-02-07T06:08:52.384Z,2.58
2023-02-07T06:11:18.950Z,2.70
2023-02-07T06:13:45.580Z,2.78
2023-02-07T06:16:12.568Z,3.05
2023-02-07T06:18:39.279Z,2.70
2023-02-07T06:21:06.084Z,2.70
2023-02-07T06:23:32.671Z,2.63
2023-02-07T06:25:59.273Z,2.97
2023-02-07T06:28:25.873Z,3.17
2023-02-07T06:30:53.371Z,3.03
2023-02-07T06:33:20.149Z,2.45
2023-02-07T06:35:47.485Z,2.53
2023-02-07T06:38:18.173Z,3.03
2023-02-07T06:40:45.285Z,2.78
2023-02-07T06:43:12.396Z,2.88
2023-02-07T06:45:39.255Z,2.63
2023-02-07T06:48:06.606Z,2.80
2023-02-07T06:50:33.671Z,2.72
2023-02-07T06:53:02.126Z,2.88
2023-02-07T06:55:29.808Z,2.92
2023-02-07T06:57:56.571Z,2.55
2023-02-07T07:00:24.809Z,2.80
2023-02-07T07:02:51.466Z,2.20
2023-02-07T07:05:18.073Z,2.72
2023-02-07T07:07:44.874Z,2.95
2023-02-07T07:10:11.517Z,2.72
2023-02-07T07:12:38.111Z,2.87
2023-02-07T07:15:05.238Z,3.05
2023-02-07T07:17:31.857Z,2.53
2023-02-07T07:19:59.784Z,2.80
2023-02-07T07:22:26.628Z,2.88
2023-02-07T07:24:53.195Z,3.03
2023-02-07T07:27:19.754Z,2.75
2023-02-07T07:29:47.184Z,2.55
2023-02-07T07:35:00.558Z,2.67
2023-02-07T07:37:27.142Z,2.80
2023-02-07T07:39:53.794Z,2.67
2023-02-07T07:42:20.388Z,2.60
2023-02-07T07:44:47.002Z,2.97
2023-02-07T07:47:13.854Z,2.40
2023-02-07T07:49:40.718Z,2.80
2023-02-07T07:52:07.540Z,2.90
2023-02-07T07:54:34.122Z,2.67
2023-02-07T07:57:00.745Z,2.72
2023-02-07T07:59:27.493Z,2.80
2023-02-07T08:01:54.068Z,2.80
2023-02-07T08:04:20.664Z,3.13
2023-02-07T08:06:47.251Z,3.28
2023-02-07T08:09:13.968Z,3.33
2023-02-07T08:11:40.560Z,3.10
2023-02-07T08:14:07.170Z,2.87
2023-02-07T08:16:33.878Z,2.63
2023-02-07T08:19:00.468Z,3.03
2023-02-07T08:21:27.068Z,2.95
2023-02-07T08:23:57.183Z,3.10
2023-02-07T08:26:23.766Z,2.87
2023-02-07T08:28:52.394Z,2.80
2023-02-07T08:31:19.305Z,2.92
2023-02-07T08:33:45.998Z,2.88
2023-02-07T08:36:13.008Z,3.55
2023-02-07T08:38:39.625Z,3.20
2023-02-07T08:41:06.298Z,3.25
2023-02-07T08:43:32.909Z,3.20
2023-02-07T08:46:00.770Z,3.30
2023-02-07T08:48:27.641Z,3.20
2023-02-07T08:50:54.519Z,3.53
2023-02-07T08:53:21.489Z,3.20
2023-02-07T08:55:48.458Z,3.53
2023-02-07T08:58:15.069Z,3.35
2023-02-07T09:00:42.113Z,3.40
2023-02-07T09:03:09.003Z,3.60
2023-02-07T09:05:35.682Z,3.08
2023-02-07T09:08:03.043Z,3.20
2023-02-07T09:10:29.836Z,3.15
2023-02-07T09:12:56.429Z,3.70
2023-02-07T09:15:23.016Z,3.47
2023-02-07T09:17:49.726Z,3.40
2023-02-07T09:20:16.346Z,3.42
2023-02-07T09:23:12.481Z,3.15
2023-02-07T09:25:40.791Z,3.17
2023-02-07T09:28:08.706Z,3.47
2023-02-07T09:30:35.696Z,3.22
2023-02-07T09:33:02.495Z,3.60
2023-02-07T09:35:29.093Z,3.30
2023-02-07T09:37:56.117Z,3.28
2023-02-07T09:40:23.505Z,3.40
2023-02-07T09:43:08.986Z,3.20
2023-02-07T09:45:40.679Z,3.60
2023-02-07T09:48:17.842Z,3.92
2023-02-07T09:50:57.232Z,3.90
2023-02-07T09:53:28.841Z,3.60
2023-02-07T09:56:01.196Z,3.03
2023-02-07T09:58:41.018Z,3.70
2023-02-07T10:01:24.218Z,3.28
2023-02-07T10:04:01.947Z,3.90
2023-02-07T10:06:30.126Z,3.30
2023-02-07T10:08:59.898Z,3.65
2023-02-07T10:11:42.749Z,3.47
2023-02-07T10:14:34.883Z,3.63
2023-02-07T10:17:07.118Z,4.00
2023-02-07T10:19:36.695Z,3.90
2023-02-07T10:22:24.448Z,3.80
2023-02-07T10:25:07.049Z,3.78
2023-02-07T10:27:48.038Z,4.00
2023-02-07T10:30:23.654Z,3.78
2023-02-07T10:32:52.117Z,3.90
2023-02-07T10:35:28.448Z,3.50
2023-02-07T10:37:59.519Z,3.35
2023-02-07T10:40:34.964Z,3.78
2023-02-07T10:43:19.758Z,3.67
2023-02-07T10:45:51.885Z,3.60
2023-02-07T10:48:20.952Z,3.63
2023-02-07T10:50:47.778Z,4.03
2023-02-07T10:53:54.318Z,4.00
2023-02-07T10:56:26.990Z,3.58
2023-02-07T10:58:56.327Z,3.70
2023-02-07T11:01:31.880Z,3.47
2023-02-07T11:03:58.622Z,3.40
2023-02-07T11:06:27.568Z,3.22
2023-02-07T11:09:12.730Z,3.08
2023-02-07T11:11:40.766Z,3.50
2023-02-07T11:14:15.525Z,3.03
2023-02-07T11:16:45.546Z,3.25
2023-02-07T11:19:20.471Z,2.92
2023-02-07T11:21:49.221Z,3.15
2023-02-07T11:24:19.676Z,3.20
2023-02-07T11:27:06.758Z,3.25
2023-02-07T11:29:44.185Z,3.38
2023-02-07T11:32:15.037Z,3.20
2023-02-07T11:34:46.612Z,3.53
2023-02-07T11:37:27.360Z,2.90
2023-02-07T11:40:16.037Z,2.83
2023-02-07T11:42:43.020Z,3.13
2023-02-07T11:45:15.562Z,2.97
2023-02-07T11:47:45.221Z,3.05
2023-02-07T11:50:20.858Z,3.20
2023-02-07T11:52:56.683Z,2.75
2023-02-07T11:55:34.307Z,3.28
2023-02-07T11:58:17.813Z,3.10
2023-02-07T12:00:45.191Z,3.10
2023-02-07T12:03:41.289Z,2.97
2023-02-07T12:06:14.320Z,2.95
2023-02-07T12:08:41.581Z,2.97
2023-02-07T12:11:17.450Z,3.00
2023-02-07T12:13:52.634Z,2.88
2023-02-07T12:16:42.134Z,3.10
2023-02-07T12:19:19.186Z,2.83
2023-02-07T12:22:07.604Z,2.63
2023-02-07T12:24:43.173Z,2.97
2023-02-07T12:27:16.675Z,3.13
2023-02-07T12:30:12.930Z,3.17
2023-02-07T12:32:54.681Z,3.03
2023-02-07T12:35:58.856Z,2.92
2023-02-07T12:38:32.775Z,3.00
2023-02-07T12:41:18.598Z,3.03
2023-02-07T12:44:09.563Z,2.60
2023-02-07T12:46:36.870Z,2.80
2023-02-07T12:49:28.499Z,3.53
2023-02-07T12:52:40.471Z,2.72
2023-02-07T12:55:20.632Z,2.85
2023-02-07T12:57:56.438Z,3.00
2023-02-07T13:00:26.138Z,3.20
2023-02-07T13:03:14.654Z,3.00
2023-02-07T13:05:47.918Z,2.88
2023-02-07T13:08:33.982Z,2.90
2023-02-07T13:11:08.904Z,2.77
2023-02-07T13:13:54.034Z,2.75
2023-02-07T13:16:27.485Z,2.80
2023-02-07T13:19:44.161Z,2.80
2023-02-07T13:22:36.458Z,2.78
2023-02-07T13:25:07.778Z,2.60
2023-02-07T13:27:36.587Z,2.90
2023-02-07T13:30:03.546Z,2.75
2023-02-07T13:32:30.154Z,2.75
2023-02-07T13:35:05.746Z,2.70
2023-02-07T13:37:59.260Z,3.20
2023-02-07T13:40:58.933Z,2.90
2023-02-07T13:44:10.351Z,2.85
2023-02-07T13:47:14.557Z,2.60
2023-02-07T13:49:47.772Z,2.80
2023-02-07T13:52:55.236Z,2.83
2023-02-07T13:55:40.137Z,2.45
2023-02-07T13:58:51.643Z,2.80
2023-02-07T14:01:24.390Z,2.53
2023-02-07T14:04:09.240Z,2.70
2023-02-07T14:06:42.702Z,2.80
2023-02-07T14:09:15.401Z,3.00
2023-02-07T14:11:44.723Z,3.05
2023-02-07T14:14:27.651Z,2.70
2023-02-07T14:17:00.225Z,2.40
2023-02-07T14:19:43.176Z,2.40
2023-02-07T14:22:31.226Z,2.70
2023-02-07T14:25:03.565Z,2.53
2023-02-07T14:27:31.868Z,2.45
2023-02-07T14:30:01.491Z,2.80
2023-02-07T14:32:39.024Z,2.50
2023-02-07T14:35:17.439Z,2.53
2023-02-07T14:37:51.586Z,2.38
2023-02-07T14:40:32.951Z,2.47
2023-02-07T14:43:03.831Z,2.75
2023-02-07T14:45:33.480Z,2.63
2023-02-07T14:48:00.917Z,2.78
2023-02-07T14:50:33.982Z,2.90
2023-02-07T14:53:04.585Z,2.88
2023-02-07T14:55:41.074Z,2.67
2023-02-07T14:58:19.894Z,2.60
2023-02-07T15:00:51.048Z,2.50
2023-02-07T15:03:20.568Z,2.90
2023-02-07T15:05:53.967Z,2.60
2023-02-07T15:08:23.666Z,2.78
2023-02-07T15:11:04.237Z,2.33
2023-02-07T15:13:39.180Z,2.20
2023-02-07T15:16:07.090Z,2.65
2023-02-07T15:18:39.037Z,2.50
2023-02-07T15:21:07.153Z,2.70
2023-02-07T15:23:33.811Z,2.40
2023-02-07T15:26:06.136Z,2.63
2023-02-07T15:28:33.347Z,2.15
2023-02-07T15:31:10.531Z,2.22
2023-02-07T15:34:05.383Z,2.40
2023-02-07T15:36:37.962Z,2.53
2023-02-07T15:39:07.831Z,2.58
2023-02-07T15:41:34.976Z,2.33
2023-02-07T15:44:07.242Z,2.50
2023-02-07T15:46:55.734Z,2.33
2023-02-07T15:49:35.514Z,2.20
2023-02-07T15:52:14.413Z,2.22
2023-02-07T15:54:47.003Z,2.08
2023-02-07T15:57:25.625Z,2.38
2023-02-07T15:59:55.545Z,2.33
2023-02-07T16:02:31.612Z,2.00
2023-02-07T16:04:59.661Z,2.10
2023-02-07T16:07:27.206Z,2.10
2023-02-07T16:09:54.019Z,1.98
2023-02-07T16:12:33.343Z,2.15
2023-02-07T16:15:01.929Z,2.13
2023-02-07T16:17:44.143Z,2.22
2023-02-07T16:20:14.612Z,2.22
2023-02-07T16:22:43.910Z,2.20
2023-02-07T16:25:22.095Z,1.90
2023-02-07T16:27:51.838Z,2.00
2023-02-07T16:30:23.544Z,2.30
2023-02-07T16:32:50.524Z,2.05
2023-02-07T16:35:20.878Z,2.17
2023-02-07T16:37:47.866Z,2.15
2023-02-07T16:40:15.474Z,2.00
2023-02-07T16:42:42.628Z,1.92
2023-02-07T16:45:17.147Z,2.05
2023-02-07T16:47:44.429Z,1.90
2023-02-07T16:50:19.004Z,2.03
2023-02-07T16:52:47.531Z,2.00
2023-02-07T16:55:14.338Z,1.83
2023-02-07T16:57:42.553Z,1.90
2023-02-07T17:00:13.906Z,1.90
2023-02-07T17:02:40.653Z,1.88
2023-02-07T17:05:07.583Z,2.10
2023-02-07T17:07:34.233Z,2.03
2023-02-07T17:10:00.971Z,2.90
2023-02-07T17:12:27.576Z,2.65
2023-02-07T17:14:54.262Z,2.60
2023-02-07T17:17:20.964Z,2.57
2023-02-07T17:19:48.817Z,2.47
2023-02-07T17:22:15.508Z,2.42
2023-02-07T17:24:42.195Z,2.80
2023-02-07T17:27:10.580Z,3.13
2023-02-07T17:29:37.228Z,3.17
2023-02-07T17:32:03.996Z,4.18
2023-02-07T17:34:30.581Z,5.32
2023-02-07T17:36:57.280Z,6.47
2023-02-07T17:39:24.040Z,7.65
2023-02-07T17:41:50.721Z,8.10
2023-02-07T17:44:21.365Z,6.82
2023-02-07T17:46:48.440Z,6.43
2023-02-07T17:49:16.588Z,5.93
2023-02-07T17:51:43.337Z,6.13
2023-02-07T17:54:09.973Z,5.53
2023-02-07T17:56:36.638Z,5.50
2023-02-07T17:59:05.372Z,4.85
2023-02-07T18:01:32.955Z,5.07
2023-02-07T18:04:00.141Z,4.60
2023-02-07T18:06:29.362Z,4.80
2023-02-07T18:08:58.602Z,4.50
2023-02-07T18:11:27.311Z,4.45
2023-02-07T18:13:56.866Z,4.50
2023-02-07T18:16:26.262Z,3.63
2023-02-07T18:18:55.045Z,3.70
2023-02-07T18:21:21.829Z,3.90
2023-02-07T18:23:48.563Z,3.47
2023-02-07T18:26:16.686Z,3.42
2023-02-07T18:28:43.750Z,3.60
2023-02-07T18:31:16.256Z,3.50
2023-02-07T18:33:43.386Z,3.08
2023-02-07T18:36:10.294Z,3.60
2023-02-07T18:38:37.315Z,3.30
2023-02-07T18:41:14.600Z,2.80
2023-02-07T18:43:42.493Z,3.10
2023-02-07T18:46:15.054Z,2.90
2023-02-07T18:48:42.017Z,2.95
2023-02-07T18:51:10.962Z,2.65
2023-02-07T18:53:38.460Z,2.75
2023-02-07T18:56:11.551Z,2.60
2023-02-07T18:58:38.710Z,3.00
2023-02-07T19:01:13.041Z,2.90
2023-02-07T19:03:39.598Z,2.40
2023-02-07T19:06:07.964Z,2.40
2023-02-07T19:08:35.078Z,2.40
2023-02-07T19:11:04.801Z,2.63
2023-02-07T19:13:33.138Z,2.55
2023-02-07T19:16:07.944Z,2.63
2023-02-07T19:18:35.102Z,2.50
2023-02-07T19:21:13.513Z,2.20
2023-02-07T19:23:41.059Z,2.60
2023-02-07T19:26:08.754Z,2.13
2023-02-07T19:28:36.840Z,2.33
2023-02-07T19:31:04.604Z,2.25
2023-02-07T19:33:31.205Z,1.87
2023-02-07T19:36:03.101Z,2.33
2023-02-07T19:38:29.681Z,2.38
2023-02-07T19:40:57.483Z,1.92
2023-02-07T19:43:24.275Z,2.35
2023-02-07T19:45:50.940Z,2.10
2023-02-07T19:48:17.580Z,2.20
2023-02-07T19:50:45.134Z,2.13
2023-02-07T19:53:11.872Z,1.90
2023-02-07T19:55:38.955Z,1.90
2023-02-07T19:58:05.619Z,2.10
2023-02-07T20:00:32.386Z,2.30
2023-02-07T20:02:59.322Z,2.22
2023-02-07T20:05:26.865Z,1.92
2023-02-07T20:07:54.034Z,2.00
2023-02-07T20:10:20.650Z,1.90
2023-02-07T20:12:48.332Z,2.05
2023-02-07T20:15:14.942Z,1.80
2023-02-07T20:17:41.658Z,1.98
2023-02-07T20:20:08.943Z,1.77
2023-02-07T20:22:35.537Z,1.90
2023-02-07T20:25:02.228Z,2.03
2023-02-07T20:27:28.809Z,2.10
2023-02-07T20:29:55.408Z,1.77
2023-02-07T20:32:22.058Z,1.70
2023-02-07T20:34:48.783Z,2.00
2023-02-07T20:37:15.450Z,1.80
2023-02-07T20:39:42.008Z,1.52
2023-02-07T20:42:08.649Z,1.63
2023-02-07T20:44:35.223Z,1.80
2023-02-07T20:47:01.810Z,1.70
2023-02-07T20:49:30.736Z,1.90
2023-02-07T20:51:59.002Z,1.90
2023-02-07T20:54:27.823Z,1.80
2023-02-07T20:56:55.260Z,1.38
2023-02-07T20:59:25.040Z,2.00
2023-02-07T21:01:52.183Z,1.70
2023-02-07T21:04:19.083Z,1.80
2023-02-07T21:06:45.763Z,1.45
2023-02-07T21:09:13.520Z,1.40
2023-02-07T21:11:45.634Z,1.87
2023-02-07T21:14:30.236Z,1.80
2023-02-07T21:16:59.393Z,1.85
2023-02-07T21:19:26.043Z,1.80
2023-02-07T21:21:55.051Z,1.88
2023-02-07T21:24:21.963Z,1.53
2023-02-07T21:26:49.292Z,1.63
2023-02-07T21:29:16.645Z,1.65
2023-02-07T21:31:43.369Z,1.50
2023-02-07T21:34:10.011Z,1.75
2023-02-07T21:36:39.901Z,1.60
2023-02-07T21:39:10.477Z,1.48
2023-02-07T21:41:39.511Z,1.55
2023-02-07T21:44:06.462Z,1.95
2023-02-07T21:46:36.436Z,1.73
2023-02-07T21:49:06.479Z,1.70
2023-02-07T21:51:35.257Z,1.63
2023-02-07T21:54:03.639Z,1.50
2023-02-07T21:56:32.766Z,1.70
2023-02-07T21:59:02.056Z,1.50
2023-02-07T22:01:30.088Z,1.60
2023-02-07T22:03:59.734Z,1.40
2023-02-07T22:06:26.814Z,1.70
2023-02-07T22:08:58.972Z,1.77
2023-02-07T22:11:28.181Z,1.70
2023-02-07T22:13:55.158Z,1.47
2023-02-07T22:16:23.535Z,1.60
2023-02-07T22:18:53.074Z,1.70
2023-02-07T22:21:29.202Z,1.60
2023-02-07T22:23:57.387Z,1.70
2023-02-07T22:26:24.759Z,1.77
2023-02-07T22:28:51.968Z,1.55
2023-02-07T22:31:24.995Z,1.40
2023-02-07T22:33:54.392Z,1.67
2023-02-07T22:36:24.178Z,1.40
2023-02-07T22:38:51.465Z,1.47
2023-02-07T22:41:19.128Z,1.60
2023-02-07T22:43:45.801Z,1.52
2023-02-07T22:46:16.445Z,1.30
2023-02-07T22:48:43.624Z,1.65
2023-02-07T22:51:17.998Z,1.57
2023-02-07T22:53:44.762Z,1.60
2023-02-07T22:56:11.811Z,1.80
2023-02-07T22:58:38.751Z,1.58
2023-02-07T23:01:06.318Z,1.45
2023-02-07T23:03:34.415Z,1.50
2023-02-07T23:06:05.290Z,1.50
2023-02-07T23:08:31.896Z,1.60
2023-02-07T23:10:58.526Z,1.50
2023-02-07T23:13:25.101Z,1.70
2023-02-07T23:15:53.883Z,1.40
2023-02-07T23:18:20.744Z,1.60
2023-02-07T23:20:47.556Z,1.50
2023-02-07T23:23:14.173Z,1.65
2023-02-07T23:25:44.928Z,1.70
2023-02-07T23:28:12.786Z,1.60
2023-02-07T23:30:40.416Z,1.80
2023-02-07T23:33:09.116Z,1.70
2023-02-07T23:35:35.975Z,1.75
2023-02-07T23:38:06.559Z,1.70
2023-02-07T23:40:33.319Z,1.73
2023-02-07T23:42:59.939Z,1.60
2023-02-07T23:45:26.543Z,1.70
2023-02-07T23:47:53.805Z,1.42
2023-02-07T23:50:22.291Z,1.70
2023-02-07T23:52:48.884Z,1.60
2023-02-07T23:55:15.570Z,1.70
2023-02-07T23:57:42.139Z,1.67
